This is the latest recevied weather packets stored in our database for station/object K4FDS. If no packets are shown the sender has not sent any weather packets the latest 1 day(s).
| Time | Temp. | Humidity | Pressure | Rain* | Wind** | Luminosity | Snow |
|---|---|---|---|---|---|---|---|
| 1778041167 | 17.22° C | 57% | 1007.4 hPa | 0 mm | 0 m/s | - | - |
| 1778039367 | 17.22° C | 57% | 1007.4 hPa | 0 mm | 0 m/s | - | - |
| 1778037567 | 18.89° C | 51% | 1007.5 hPa | 0 mm | 0 m/s | - | - |
| 1778035767 | 18.89° C | 51% | 1007.5 hPa | 0 mm | 0 m/s | - | - |
| 1778033967 | 18.89° C | 51% | 1007.5 hPa | 0 mm | 0 m/s | - | - |
| 1778032167 | 18.89° C | 51% | 1007.5 hPa | 0 mm | 0 m/s | - | - |
| 1778030366 | 25.56° C | 34% | 1005.7 hPa | 0 mm | 0.45 m/s, 123° | - | - |
| 1778028566 | 25.56° C | 34% | 1005.7 hPa | 0 mm | 0.45 m/s, 123° | - | - |
| 1778026766 | 25.56° C | 34% | 1005.7 hPa | 0 mm | 0.45 m/s, 123° | - | - |
| 1778024966 | 25.56° C | 34% | 1005.7 hPa | 0 mm | 0.45 m/s, 123° | - | - |
| 1778023166 | 25.56° C | 34% | 1005.7 hPa | 0 mm | 0.45 m/s, 123° | - | - |
| 1778021366 | 25.56° C | 34% | 1005.7 hPa | 0 mm | 0.45 m/s, 123° | - | - |
| 1778019566 | 26.67° C | 31% | 1005.6 hPa | 0 mm | 0.45 m/s, 168° | - | - |
| 1778017766 | 26.67° C | 31% | 1005.6 hPa | 0 mm | 0.45 m/s, 168° | - | - |
| 1778015966 | 26.67° C | 31% | 1005.6 hPa | 0 mm | 0.45 m/s, 168° | - | - |
| 1778014166 | 26.67° C | 31% | 1005.6 hPa | 0 mm | 0.45 m/s, 168° | - | - |
| 1778012366 | 27.22° C | 30% | 1005.5 hPa | 0 mm | 0.89 m/s, 142° | - | - |
| 1778010566 | 26.67° C | 34% | 1006.3 hPa | 0 mm | 0.45 m/s, 161° | - | - |
| 1778008766 | 26.67° C | 34% | 1006.3 hPa | 0 mm | 0.45 m/s, 161° | - | - |
| 1778006966 | 26.67° C | 35% | 1006.5 hPa | 0 mm | 0.45 m/s, 137° | - | - |
| 1778005166 | 25.56° C | 37% | 1007.4 hPa | 0 mm | 0.45 m/s, 214° | - | - |
| 1778003366 | 25.56° C | 37% | 1007.4 hPa | 0 mm | 0.45 m/s, 214° | - | - |
| 1778001566 | 24.44° C | 37% | 1008.3 hPa | 0 mm | 0.45 m/s, 257° | - | - |
| 1777999766 | 24.44° C | 37% | 1008.3 hPa | 0 mm | 0.45 m/s, 257° | - | - |
| 1777997966 | 21.11° C | 49% | 1009.7 hPa | 0 mm | 0.45 m/s, 228° | - | - |
* Rain latest hour (hover to see other rain measurements)
** Current wind speed in m/s (hover to see current wind gust speed)